Union Manta — ORKJ — position and weather

sailwx.info

Track history (hours):
 
Tides and Currents Weather Stations Pressure Air Temp Water Temp Dewpoint Dewpoint Depression Visibility Wind Speed Wind Dir Waves Ship Positions

Union Manta

Last reported at 2016-Jul-16 09:34 UTC. Time now 2016-Jul-29 07:51 UTC.
Position N 54°03' E 006°12'.
Warning: this ship's position is 12 days out of date.

Length 75 m; draft 6.7 m.

Type: Tug. MMSI: 205340000.

Date/timePositionNaut miles runAvg speedWind from/ knotsBaromVisibWave heightAir tempDewpointWater temp
2016-Jul-16 09:34N 54°03' E 006°12'6 5.7
2016-Jul-16 08:34N 53°58' E 006°07'6 5.7
2016-Jul-16 07:33N 53°53' E 006°02'4 4.0
2016-Jul-16 06:34N 53°50' E 005°59'0 0.2
2016-Jul-16 04:34N 53°50' E 005°59'1 0.6
2016-Jul-16 03:33N 53°51' E 005°59'1 0.7
2016-Jul-16 02:32N 53°50' E 005°58'1 0.6
2016-Jul-16 01:34N 53°50' E 005°57'1 0.7
2016-Jul-16 00:34N 53°50' E 005°58'1 0.6
2016-Jul-15 23:33N 53°51' E 005°58'1 1.2
2016-Jul-15 22:33N 53°52' E 005°60'0 0.1
2016-Jul-15 21:33N 53°52' E 005°60'0 0.0
2016-Jul-15 20:33N 53°52' E 005°60'0 0.0
2016-Jul-15 19:33N 53°52' E 005°60'0 0.0
2016-Jul-15 18:24N 53°52' E 005°60'0 0.0
2016-Jul-15 17:24N 53°52' E 005°60'0 0.0
2016-Jul-15 16:30N 53°52' E 005°60'0 0.0
2016-Jul-15 15:32N 53°52' E 005°60'0 0.0
2016-Jul-15 14:29N 53°52' E 005°60'0 0.0
2016-Jul-15 13:32N 53°52' E 005°60'0 0.0
2016-Jul-15 12:26N 53°52' E 005°60'0 0.0
2016-Jul-15 11:32N 53°51' E 005°60'0 0.0
2016-Jul-15 10:32N 53°51' E 005°60'0 0.0
2016-Jul-15 09:23N 53°51' E 005°60'0 0.0
2016-Jul-15 08:32N 53°51' E 005°60'0 0.0
2016-Jul-15 07:33N 53°51' E 005°60'0 0.0
2016-Jul-15 06:33N 53°51' E 005°60'0 0.0
2016-Jul-15 05:33N 53°51' E 005°60'0 0.0
2016-Jul-15 04:33N 53°52' E 005°60'0 0.0
2016-Jul-15 03:32N 53°52' E 005°60'0 0.0
2016-Jul-15 02:33N 53°51' E 005°60'0 0.0
2016-Jul-15 01:21N 53°51' E 005°60'0 0.0
2016-Jul-15 00:33N 53°51' E 005°60'0 0.0
2016-Jul-14 23:22N 53°51' E 005°60'0 0.0
2016-Jul-14 22:25N 53°51' E 005°60'0 0.0
2016-Jul-14 21:31N 53°51' E 005°60'0 0.0
2016-Jul-14 20:33N 53°52' E 005°60'2 1.7
2016-Jul-14 19:33N 53°50' E 005°59'2 2.1
2016-Jul-14 18:33N 53°48' E 006°01'1211.6
2016-Jul-14 17:34N 53°39' E 006°12'1111.3
2016-Jul-14 16:34N 53°37' E 006°31'1010.2
2016-Jul-14 15:34N 53°31' E 006°45'5 5.1
2016-Jul-14 14:34N 53°27' E 006°50'0 0.0
2016-Jul-14 13:32N 53°27' E 006°50'0 0.0
2016-Jul-14 12:32N 53°27' E 006°50'0 0.0
2016-Jul-14 11:33N 53°27' E 006°50'0 0.0
2016-Jul-14 10:32N 53°27' E 006°50'4 4.0
2016-Jul-14 09:34N 53°31' E 006°47'1010.2
2016-Jul-14 08:34N 53°37' E 006°33'1211.9
2016-Jul-14 07:33N 53°38' E 006°13'1111.6
2016-Jul-14 06:34N 53°47' E 006°01'3 3.1
2016-Jul-14 05:33N 53°50' E 005°59'2 1.9
2016-Jul-14 04:31N 53°49' E 006°02'0 0.0
2016-Jul-14 03:29N 53°49' E 006°02'0 0.0
2016-Jul-14 02:32N 53°49' E 006°02'0 0.0
2016-Jul-14 01:27N 53°49' E 006°02'0 0.0
2016-Jul-14 00:30N 53°49' E 006°02'0 0.0
2016-Jul-13 23:33N 53°49' E 006°02'0 0.0
2016-Jul-13 22:27N 53°49' E 006°02'0 0.0
2016-Jul-13 21:28N 53°49' E 006°02'0 0.0
2016-Jul-13 20:28N 53°49' E 006°02'0 0.0
2016-Jul-13 19:30N 53°49' E 006°02'0 0.0
2016-Jul-13 18:30N 53°49' E 006°02'0 0.0
2016-Jul-13 17:31N 53°49' E 006°02'0 0.0
2016-Jul-13 16:27N 53°49' E 006°02'0 0.0
2016-Jul-13 15:33N 53°49' E 006°02'0 0.0
2016-Jul-13 14:33N 53°49' E 006°02'0 0.0
2016-Jul-13 13:30N 53°49' E 006°02'0 0.0
2016-Jul-13 12:33N 53°49' E 006°02'0 0.0
2016-Jul-13 11:27N 53°49' E 006°02'0 0.0
2016-Jul-13 10:33N 53°49' E 006°02'0 0.0
2016-Jul-13 09:33N 53°49' E 006°02'0 0.0
2016-Jul-13 08:31N 53°49' E 006°02'0 0.0
2016-Jul-13 07:25N 53°49' E 006°02'0 0.0
2016-Jul-13 06:30N 53°49' E 006°02'0 0.0
2016-Jul-13 05:30N 53°49' E 006°02'0 0.0
2016-Jul-13 04:33N 53°49' E 006°02'0 0.0
2016-Jul-13 03:33N 53°49' E 006°02'0 0.0
2016-Jul-13 02:33N 53°49' E 006°02'0 0.0
2016-Jul-13 01:30N 53°49' E 006°02'0 0.0
2016-Jul-13 00:33N 53°49' E 006°02'0 0.0
2016-Jul-12 23:33N 53°49' E 006°02'0 0.0
2016-Jul-12 22:21N 53°49' E 006°02'0 0.0
2016-Jul-12 21:30N 53°49' E 006°02'0 0.0
2016-Jul-12 20:30N 53°49' E 006°02'0 0.0
2016-Jul-12 19:33N 53°49' E 006°02'0 0.0
2016-Jul-12 18:24N 53°49' E 006°02'0 0.0
2016-Jul-12 17:33N 53°49' E 006°02'0 0.0
2016-Jul-12 16:30N 53°49' E 006°02'0 0.0
2016-Jul-12 15:30N 53°49' E 006°02'0 0.0
2016-Jul-12 14:27N 53°49' E 006°02'0 0.0
2016-Jul-12 13:33N 53°49' E 006°02'0 0.0
2016-Jul-12 12:27N 53°49' E 006°02'0 0.0
2016-Jul-12 11:27N 53°49' E 006°02'0 0.0
2016-Jul-12 10:24N 53°49' E 006°02'0 0.0
2016-Jul-12 09:30N 53°49' E 006°02'0 0.0
2016-Jul-12 08:33N 53°49' E 006°02'0 0.0
2016-Jul-12 07:33N 53°49' E 006°02'0 0.0
2016-Jul-12 06:33N 53°49' E 006°02'0 0.0
2016-Jul-12 05:33N 53°49' E 006°02'0 0.0
2016-Jul-12 04:33N 53°49' E 006°02'0 0.0
2016-Jul-12 03:24N 53°49' E 006°02'0 0.0
2016-Jul-12 02:33N 53°49' E 006°02'0 0.0
2016-Jul-12 01:33N 53°49' E 006°02'0 0.0
2016-Jul-12 00:33N 53°49' E 006°02'0 0.0
2016-Jul-11 23:24N 53°49' E 006°02'0 0.0
2016-Jul-11 22:27N 53°49' E 006°02'0 0.0
2016-Jul-11 21:33N 53°49' E 006°02'0 0.0
2016-Jul-11 20:33N 53°50' E 006°02'0 0.0
2016-Jul-11 19:33N 53°50' E 006°02'0 0.0
2016-Jul-11 18:30N 53°50' E 006°02'0 0.0
2016-Jul-11 17:33N 53°50' E 006°02'0 0.0
2016-Jul-11 16:33N 53°49' E 006°02'0 0.0
2016-Jul-11 15:30N 53°50' E 006°02'0 0.0
2016-Jul-11 14:30N 53°49' E 006°02'0 0.0
2016-Jul-11 13:21N 53°49' E 006°02'0 0.0
2016-Jul-11 12:33N 53°49' E 006°02'0 0.0
2016-Jul-11 11:18N 53°49' E 006°02'0 0.0
2016-Jul-11 10:33N 53°49' E 006°02'0 0.0
2016-Jul-11 09:09N 53°49' E 006°02'0 0.0
2016-Jul-11 08:30N 53°50' E 006°02'0 0.0
2016-Jul-11 07:33N 53°50' E 006°02'0 0.0
2016-Jul-11 06:30N 53°49' E 006°02'0 0.0
2016-Jul-11 04:30N 53°49' E 006°02'0 0.0
2016-Jul-11 03:18N 53°49' E 006°02'0 0.0
2016-Jul-11 02:33N 53°49' E 006°02'0 0.0
2016-Jul-11 01:33N 53°49' E 006°02'0 0.0
2016-Jul-11 00:15N 53°49' E 006°02'0 0.0
2016-Jul-10 23:27N 53°49' E 006°02'0 0.0
2016-Jul-10 22:33N 53°49' E 006°02'0 0.0
2016-Jul-10 21:27N 53°49' E 006°02'0 0.0
2016-Jul-10 20:33N 53°49' E 006°02'0 0.0
2016-Jul-10 19:30N 53°49' E 006°02'0 0.0
2016-Jul-10 18:33N 53°49' E 006°02'0 0.0
2016-Jul-10 17:33N 53°49' E 006°02'0 0.0
2016-Jul-10 16:33N 53°49' E 006°02'0 0.0
2016-Jul-10 15:33N 53°49' E 006°02'0 0.0
2016-Jul-10 14:30N 53°49' E 006°02'0 0.0
2016-Jul-10 13:30N 53°49' E 006°02'0 0.0
2016-Jul-10 12:09N 53°49' E 006°02'0 0.0
2016-Jul-10 11:33N 53°49' E 006°02'0 0.0
2016-Jul-10 10:33N 53°49' E 006°02'0 0.0
2016-Jul-10 09:33N 53°49' E 006°02'0 0.0
2016-Jul-10 08:33N 53°49' E 006°02'0 0.0
2016-Jul-10 07:33N 53°49' E 006°02'0 0.0
2016-Jul-10 06:30N 53°49' E 006°02'0 0.0
2016-Jul-10 05:33N 53°49' E 006°02'0 0.0
2016-Jul-10 04:27N 53°49' E 006°02'0 0.0
2016-Jul-10 03:33N 53°49' E 006°02'0 0.0
2016-Jul-10 02:30N 53°49' E 006°02'0 0.0
2016-Jul-10 01:21N 53°49' E 006°02'0 0.0
2016-Jul-10 00:30N 53°49' E 006°02'0 0.0
2016-Jul-09 23:33N 53°49' E 006°02'0 0.0
2016-Jul-09 22:21N 53°49' E 006°02'0 0.0
2016-Jul-09 21:33N 53°49' E 006°02'0 0.0
2016-Jul-09 20:33N 53°49' E 006°02'0 0.0
2016-Jul-09 19:27N 53°49' E 006°02'0 0.0
2016-Jul-09 18:27N 53°49' E 006°02'0 0.0
2016-Jul-09 17:33N 53°49' E 006°02'0 0.0
2016-Jul-09 16:30N 53°49' E 006°02'0 0.0
2016-Jul-09 15:30N 53°49' E 006°02'0 0.0
2016-Jul-09 14:21N 53°49' E 006°02'0 0.0
2016-Jul-09 13:27N 53°49' E 006°02'0 0.0
2016-Jul-09 12:30N 53°49' E 006°02'0 0.0
2016-Jul-09 11:21N 53°49' E 006°02'0 0.0
2016-Jul-09 10:31N 53°49' E 006°02'0 0.0
2016-Jul-09 09:33N 53°49' E 006°02'0 0.0
2016-Jul-09 08:33N 53°49' E 006°02'0 0.0
2016-Jul-09 07:33N 53°49' E 006°02'0 0.0
2016-Jul-09 06:30N 53°49' E 006°02'0 0.0
2016-Jul-09 04:33N 53°49' E 006°02'0 0.0
2016-Jul-09 03:33N 53°49' E 006°02'0 0.0
2016-Jul-09 02:33N 53°49' E 006°02'0 0.0
2016-Jul-09 01:33N 53°49' E 006°02'0 0.0
2016-Jul-09 00:24N 53°49' E 006°02'0 0.0
2016-Jul-08 23:30N 53°49' E 006°02'0 0.0
2016-Jul-08 22:30N 53°49' E 006°02'0 0.0
2016-Jul-08 21:33N 53°49' E 006°02'0 0.0
2016-Jul-08 20:33N 53°49' E 006°02'0 0.0
2016-Jul-08 19:33N 53°49' E 006°02'0 0.0
2016-Jul-08 18:24N 53°49' E 006°02'0 0.1
2016-Jul-08 17:30N 53°49' E 006°02'0 0.0
2016-Jul-08 16:24N 53°49' E 006°02'0 0.0
2016-Jul-08 15:33N 53°49' E 006°02'0 0.0
2016-Jul-08 14:24N 53°49' E 006°02'0 0.0
2016-Jul-08 13:12N 53°49' E 006°02'0 0.0
2016-Jul-08 12:33N 53°49' E 006°02'0 0.0
2016-Jul-08 11:33N 53°49' E 006°02'0 0.0
2016-Jul-08 10:24N 53°49' E 006°02'0 0.0
2016-Jul-08 09:30N 53°49' E 006°02'0 0.0
2016-Jul-08 08:27N 53°49' E 006°02'0 0.0
2016-Jul-08 07:27N 53°49' E 006°02'0 0.0
2016-Jul-08 06:33N 53°49' E 006°02'0 0.0
2016-Jul-08 04:33N 53°49' E 006°02'0 0.0
2016-Jul-08 03:33N 53°49' E 006°02'0 0.0
2016-Jul-08 02:33N 53°49' E 006°02'0 0.0
2016-Jul-08 01:30N 53°49' E 006°02'0 0.0
2016-Jul-08 00:33N 53°49' E 006°02'0 0.0
2016-Jul-07 23:33N 53°49' E 006°02'0 0.0
2016-Jul-07 22:33N 53°49' E 006°02'0 0.0
2016-Jul-07 19:21N 53°49' E 006°02'0 0.0
2016-Jul-07 18:30N 53°49' E 006°02'0 0.0
2016-Jul-07 17:33N 53°49' E 006°02'0 0.0
2016-Jul-07 16:33N 53°49' E 006°02'0 0.0
2016-Jul-07 15:27N 53°49' E 006°02'0 0.0
2016-Jul-07 14:30N 53°49' E 006°02'0 0.0
2016-Jul-07 13:30N 53°49' E 006°02'0 0.0
2016-Jul-07 12:30N 53°49' E 006°02'0 0.0
2016-Jul-07 11:30N 53°49' E 006°02'0 0.0
2016-Jul-07 10:24N 53°49' E 006°02'0 0.0
2016-Jul-07 09:30N 53°49' E 006°02'0 0.0
2016-Jul-07 08:21N 53°49' E 006°02'0 0.0
2016-Jul-07 07:21N 53°49' E 006°02'0 0.1
2016-Jul-07 06:33N 53°49' E 006°02'0 0.0
2016-Jul-07 05:27N 53°49' E 006°02'0 0.0
2016-Jul-07 04:33N 53°49' E 006°02'0 0.0
2016-Jul-07 03:33N 53°49' E 006°02'0 0.0
2016-Jul-07 02:30N 53°49' E 006°02'0 0.1
2016-Jul-07 01:33N 53°49' E 006°02'0 0.0
2016-Jul-07 00:33N 53°49' E 006°02'0 0.0
2016-Jul-06 23:27N 53°49' E 006°02'0 0.0
2016-Jul-06 22:27N 53°49' E 006°02'0 0.0
2016-Jul-06 21:33N 53°49' E 006°02'0 0.0
2016-Jul-06 20:24N 53°49' E 006°02'0 0.0
2016-Jul-06 19:33N 53°49' E 006°02'0 0.0
2016-Jul-06 18:33N 53°49' E 006°02'0 0.1
2016-Jul-06 17:29N 53°49' E 006°02'0 0.0
2016-Jul-06 16:28N 53°49' E 006°02'0 0.0
2016-Jul-06 15:31N 53°49' E 006°02'0 0.0
2016-Jul-06 14:30N 53°49' E 006°02'0 0.1
2016-Jul-06 13:29N 53°49' E 006°02'0 0.0
2016-Jul-06 12:30N 53°49' E 006°02'0 0.0
2016-Jul-06 11:31N 53°49' E 006°02'0 0.0
2016-Jul-06 10:32N 53°49' E 006°02'  
Track history (hours):
 
Tides and Currents Weather Stations Pressure Air Temp Water Temp Dewpoint Dewpoint Depression Visibility Wind Speed Wind Dir Waves Ship Positions

Union Manta

Last reported at 2016-Jul-16 09:34 UTC. Time now 2016-Jul-29 07:51 UTC.
Position N 54°03' E 006°12'.
Warning: this ship's position is 12 days out of date.

Length 75 m; draft 6.7 m.

Type: Tug. MMSI: 205340000.

Date/timePositionNaut miles runAvg speedWind from/ knotsBaromVisibWave heightAir tempDewpointWater temp
2016-Jul-16 09:34N 54°03' E 006°12'6 5.7
2016-Jul-16 08:34N 53°58' E 006°07'6 5.7
2016-Jul-16 07:33N 53°53' E 006°02'4 4.0
2016-Jul-16 06:34N 53°50' E 005°59'0 0.2
2016-Jul-16 04:34N 53°50' E 005°59'1 0.6
2016-Jul-16 03:33N 53°51' E 005°59'1 0.7
2016-Jul-16 02:32N 53°50' E 005°58'1 0.6
2016-Jul-16 01:34N 53°50' E 005°57'1 0.7
2016-Jul-16 00:34N 53°50' E 005°58'1 0.6
2016-Jul-15 23:33N 53°51' E 005°58'1 1.2
2016-Jul-15 22:33N 53°52' E 005°60'0 0.1
2016-Jul-15 21:33N 53°52' E 005°60'0 0.0
2016-Jul-15 20:33N 53°52' E 005°60'0 0.0
2016-Jul-15 19:33N 53°52' E 005°60'0 0.0
2016-Jul-15 18:24N 53°52' E 005°60'0 0.0
2016-Jul-15 17:24N 53°52' E 005°60'0 0.0
2016-Jul-15 16:30N 53°52' E 005°60'0 0.0
2016-Jul-15 15:32N 53°52' E 005°60'0 0.0
2016-Jul-15 14:29N 53°52' E 005°60'0 0.0
2016-Jul-15 13:32N 53°52' E 005°60'0 0.0
2016-Jul-15 12:26N 53°52' E 005°60'0 0.0
2016-Jul-15 11:32N 53°51' E 005°60'0 0.0
2016-Jul-15 10:32N 53°51' E 005°60'0 0.0
2016-Jul-15 09:23N 53°51' E 005°60'0 0.0
2016-Jul-15 08:32N 53°51' E 005°60'0 0.0
2016-Jul-15 07:33N 53°51' E 005°60'0 0.0
2016-Jul-15 06:33N 53°51' E 005°60'0 0.0
2016-Jul-15 05:33N 53°51' E 005°60'0 0.0
2016-Jul-15 04:33N 53°52' E 005°60'0 0.0
2016-Jul-15 03:32N 53°52' E 005°60'0 0.0
2016-Jul-15 02:33N 53°51' E 005°60'0 0.0
2016-Jul-15 01:21N 53°51' E 005°60'0 0.0
2016-Jul-15 00:33N 53°51' E 005°60'0 0.0
2016-Jul-14 23:22N 53°51' E 005°60'0 0.0
2016-Jul-14 22:25N 53°51' E 005°60'0 0.0
2016-Jul-14 21:31N 53°51' E 005°60'0 0.0
2016-Jul-14 20:33N 53°52' E 005°60'2 1.7
2016-Jul-14 19:33N 53°50' E 005°59'2 2.1
2016-Jul-14 18:33N 53°48' E 006°01'1211.6
2016-Jul-14 17:34N 53°39' E 006°12'1111.3
2016-Jul-14 16:34N 53°37' E 006°31'1010.2
2016-Jul-14 15:34N 53°31' E 006°45'5 5.1
2016-Jul-14 14:34N 53°27' E 006°50'0 0.0
2016-Jul-14 13:32N 53°27' E 006°50'0 0.0
2016-Jul-14 12:32N 53°27' E 006°50'0 0.0
2016-Jul-14 11:33N 53°27' E 006°50'0 0.0
2016-Jul-14 10:32N 53°27' E 006°50'4 4.0
2016-Jul-14 09:34N 53°31' E 006°47'1010.2
2016-Jul-14 08:34N 53°37' E 006°33'1211.9
2016-Jul-14 07:33N 53°38' E 006°13'1111.6
2016-Jul-14 06:34N 53°47' E 006°01'3 3.1
2016-Jul-14 05:33N 53°50' E 005°59'2 1.9
2016-Jul-14 04:31N 53°49' E 006°02'0 0.0
2016-Jul-14 03:29N 53°49' E 006°02'0 0.0
2016-Jul-14 02:32N 53°49' E 006°02'0 0.0
2016-Jul-14 01:27N 53°49' E 006°02'0 0.0
2016-Jul-14 00:30N 53°49' E 006°02'0 0.0
2016-Jul-13 23:33N 53°49' E 006°02'0 0.0
2016-Jul-13 22:27N 53°49' E 006°02'0 0.0
2016-Jul-13 21:28N 53°49' E 006°02'0 0.0
2016-Jul-13 20:28N 53°49' E 006°02'0 0.0
2016-Jul-13 19:30N 53°49' E 006°02'0 0.0
2016-Jul-13 18:30N 53°49' E 006°02'0 0.0
2016-Jul-13 17:31N 53°49' E 006°02'0 0.0
2016-Jul-13 16:27N 53°49' E 006°02'0 0.0
2016-Jul-13 15:33N 53°49' E 006°02'0 0.0
2016-Jul-13 14:33N 53°49' E 006°02'0 0.0
2016-Jul-13 13:30N 53°49' E 006°02'0 0.0
2016-Jul-13 12:33N 53°49' E 006°02'0 0.0
2016-Jul-13 11:27N 53°49' E 006°02'0 0.0
2016-Jul-13 10:33N 53°49' E 006°02'0 0.0
2016-Jul-13 09:33N 53°49' E 006°02'0 0.0
2016-Jul-13 08:31N 53°49' E 006°02'0 0.0
2016-Jul-13 07:25N 53°49' E 006°02'0 0.0
2016-Jul-13 06:30N 53°49' E 006°02'0 0.0
2016-Jul-13 05:30N 53°49' E 006°02'0 0.0
2016-Jul-13 04:33N 53°49' E 006°02'0 0.0
2016-Jul-13 03:33N 53°49' E 006°02'0 0.0
2016-Jul-13 02:33N 53°49' E 006°02'0 0.0
2016-Jul-13 01:30N 53°49' E 006°02'0 0.0
2016-Jul-13 00:33N 53°49' E 006°02'0 0.0
2016-Jul-12 23:33N 53°49' E 006°02'0 0.0
2016-Jul-12 22:21N 53°49' E 006°02'0 0.0
2016-Jul-12 21:30N 53°49' E 006°02'0 0.0
2016-Jul-12 20:30N 53°49' E 006°02'0 0.0
2016-Jul-12 19:33N 53°49' E 006°02'0 0.0
2016-Jul-12 18:24N 53°49' E 006°02'0 0.0
2016-Jul-12 17:33N 53°49' E 006°02'0 0.0
2016-Jul-12 16:30N 53°49' E 006°02'0 0.0
2016-Jul-12 15:30N 53°49' E 006°02'0 0.0
2016-Jul-12 14:27N 53°49' E 006°02'0 0.0
2016-Jul-12 13:33N 53°49' E 006°02'0 0.0
2016-Jul-12 12:27N 53°49' E 006°02'0 0.0
2016-Jul-12 11:27N 53°49' E 006°02'0 0.0
2016-Jul-12 10:24N 53°49' E 006°02'0 0.0
2016-Jul-12 09:30N 53°49' E 006°02'0 0.0
2016-Jul-12 08:33N 53°49' E 006°02'0 0.0
2016-Jul-12 07:33N 53°49' E 006°02'0 0.0
2016-Jul-12 06:33N 53°49' E 006°02'0 0.0
2016-Jul-12 05:33N 53°49' E 006°02'0 0.0
2016-Jul-12 04:33N 53°49' E 006°02'0 0.0
2016-Jul-12 03:24N 53°49' E 006°02'0 0.0
2016-Jul-12 02:33N 53°49' E 006°02'0 0.0
2016-Jul-12 01:33N 53°49' E 006°02'0 0.0
2016-Jul-12 00:33N 53°49' E 006°02'0 0.0
2016-Jul-11 23:24N 53°49' E 006°02'0 0.0
2016-Jul-11 22:27N 53°49' E 006°02'0 0.0
2016-Jul-11 21:33N 53°49' E 006°02'0 0.0
2016-Jul-11 20:33N 53°50' E 006°02'0 0.0
2016-Jul-11 19:33N 53°50' E 006°02'0 0.0
2016-Jul-11 18:30N 53°50' E 006°02'0 0.0
2016-Jul-11 17:33N 53°50' E 006°02'0 0.0
2016-Jul-11 16:33N 53°49' E 006°02'0 0.0
2016-Jul-11 15:30N 53°50' E 006°02'0 0.0
2016-Jul-11 14:30N 53°49' E 006°02'0 0.0
2016-Jul-11 13:21N 53°49' E 006°02'0 0.0
2016-Jul-11 12:33N 53°49' E 006°02'0 0.0
2016-Jul-11 11:18N 53°49' E 006°02'0 0.0
2016-Jul-11 10:33N 53°49' E 006°02'0 0.0
2016-Jul-11 09:09N 53°49' E 006°02'0 0.0
2016-Jul-11 08:30N 53°50' E 006°02'0 0.0
2016-Jul-11 07:33N 53°50' E 006°02'0 0.0
2016-Jul-11 06:30N 53°49' E 006°02'0 0.0
2016-Jul-11 04:30N 53°49' E 006°02'0 0.0
2016-Jul-11 03:18N 53°49' E 006°02'0 0.0
2016-Jul-11 02:33N 53°49' E 006°02'0 0.0
2016-Jul-11 01:33N 53°49' E 006°02'0 0.0
2016-Jul-11 00:15N 53°49' E 006°02'0 0.0
2016-Jul-10 23:27N 53°49' E 006°02'0 0.0
2016-Jul-10 22:33N 53°49' E 006°02'0 0.0
2016-Jul-10 21:27N 53°49' E 006°02'0 0.0
2016-Jul-10 20:33N 53°49' E 006°02'0 0.0
2016-Jul-10 19:30N 53°49' E 006°02'0 0.0
2016-Jul-10 18:33N 53°49' E 006°02'0 0.0
2016-Jul-10 17:33N 53°49' E 006°02'0 0.0
2016-Jul-10 16:33N 53°49' E 006°02'0 0.0
2016-Jul-10 15:33N 53°49' E 006°02'0 0.0
2016-Jul-10 14:30N 53°49' E 006°02'0 0.0
2016-Jul-10 13:30N 53°49' E 006°02'0 0.0
2016-Jul-10 12:09N 53°49' E 006°02'0 0.0
2016-Jul-10 11:33N 53°49' E 006°02'0 0.0
2016-Jul-10 10:33N 53°49' E 006°02'0 0.0
2016-Jul-10 09:33N 53°49' E 006°02'0 0.0
2016-Jul-10 08:33N 53°49' E 006°02'0 0.0
2016-Jul-10 07:33N 53°49' E 006°02'0 0.0
2016-Jul-10 06:30N 53°49' E 006°02'0 0.0
2016-Jul-10 05:33N 53°49' E 006°02'0 0.0
2016-Jul-10 04:27N 53°49' E 006°02'0 0.0
2016-Jul-10 03:33N 53°49' E 006°02'0 0.0
2016-Jul-10 02:30N 53°49' E 006°02'0 0.0
2016-Jul-10 01:21N 53°49' E 006°02'0 0.0
2016-Jul-10 00:30N 53°49' E 006°02'0 0.0
2016-Jul-09 23:33N 53°49' E 006°02'0 0.0
2016-Jul-09 22:21N 53°49' E 006°02'0 0.0
2016-Jul-09 21:33N 53°49' E 006°02'0 0.0
2016-Jul-09 20:33N 53°49' E 006°02'0 0.0
2016-Jul-09 19:27N 53°49' E 006°02'0 0.0
2016-Jul-09 18:27N 53°49' E 006°02'0 0.0
2016-Jul-09 17:33N 53°49' E 006°02'0 0.0
2016-Jul-09 16:30N 53°49' E 006°02'0 0.0
2016-Jul-09 15:30N 53°49' E 006°02'0 0.0
2016-Jul-09 14:21N 53°49' E 006°02'0 0.0
2016-Jul-09 13:27N 53°49' E 006°02'0 0.0
2016-Jul-09 12:30N 53°49' E 006°02'0 0.0
2016-Jul-09 11:21N 53°49' E 006°02'0 0.0
2016-Jul-09 10:31N 53°49' E 006°02'0 0.0
2016-Jul-09 09:33N 53°49' E 006°02'0 0.0
2016-Jul-09 08:33N 53°49' E 006°02'0 0.0
2016-Jul-09 07:33N 53°49' E 006°02'0 0.0
2016-Jul-09 06:30N 53°49' E 006°02'0 0.0
2016-Jul-09 04:33N 53°49' E 006°02'0 0.0
2016-Jul-09 03:33N 53°49' E 006°02'0 0.0
2016-Jul-09 02:33N 53°49' E 006°02'0 0.0
2016-Jul-09 01:33N 53°49' E 006°02'0 0.0
2016-Jul-09 00:24N 53°49' E 006°02'0 0.0
2016-Jul-08 23:30N 53°49' E 006°02'0 0.0
2016-Jul-08 22:30N 53°49' E 006°02'0 0.0
2016-Jul-08 21:33N 53°49' E 006°02'0 0.0
2016-Jul-08 20:33N 53°49' E 006°02'0 0.0
2016-Jul-08 19:33N 53°49' E 006°02'0 0.0
2016-Jul-08 18:24N 53°49' E 006°02'0 0.1
2016-Jul-08 17:30N 53°49' E 006°02'0 0.0
2016-Jul-08 16:24N 53°49' E 006°02'0 0.0
2016-Jul-08 15:33N 53°49' E 006°02'0 0.0
2016-Jul-08 14:24N 53°49' E 006°02'0 0.0
2016-Jul-08 13:12N 53°49' E 006°02'0 0.0
2016-Jul-08 12:33N 53°49' E 006°02'0 0.0
2016-Jul-08 11:33N 53°49' E 006°02'0 0.0
2016-Jul-08 10:24N 53°49' E 006°02'0 0.0
2016-Jul-08 09:30N 53°49' E 006°02'0 0.0
2016-Jul-08 08:27N 53°49' E 006°02'0 0.0
2016-Jul-08 07:27N 53°49' E 006°02'0 0.0
2016-Jul-08 06:33N 53°49' E 006°02'0 0.0
2016-Jul-08 04:33N 53°49' E 006°02'0 0.0
2016-Jul-08 03:33N 53°49' E 006°02'0 0.0
2016-Jul-08 02:33N 53°49' E 006°02'0 0.0
2016-Jul-08 01:30N 53°49' E 006°02'0 0.0
2016-Jul-08 00:33N 53°49' E 006°02'0 0.0
2016-Jul-07 23:33N 53°49' E 006°02'0 0.0
2016-Jul-07 22:33N 53°49' E 006°02'0 0.0
2016-Jul-07 19:21N 53°49' E 006°02'0 0.0
2016-Jul-07 18:30N 53°49' E 006°02'0 0.0
2016-Jul-07 17:33N 53°49' E 006°02'0 0.0
2016-Jul-07 16:33N 53°49' E 006°02'0 0.0
2016-Jul-07 15:27N 53°49' E 006°02'0 0.0
2016-Jul-07 14:30N 53°49' E 006°02'0 0.0
2016-Jul-07 13:30N 53°49' E 006°02'0 0.0
2016-Jul-07 12:30N 53°49' E 006°02'0 0.0
2016-Jul-07 11:30N 53°49' E 006°02'0 0.0
2016-Jul-07 10:24N 53°49' E 006°02'0 0.0
2016-Jul-07 09:30N 53°49' E 006°02'0 0.0
2016-Jul-07 08:21N 53°49' E 006°02'0 0.0
2016-Jul-07 07:21N 53°49' E 006°02'0 0.1
2016-Jul-07 06:33N 53°49' E 006°02'0 0.0
2016-Jul-07 05:27N 53°49' E 006°02'0 0.0
2016-Jul-07 04:33N 53°49' E 006°02'0 0.0
2016-Jul-07 03:33N 53°49' E 006°02'0 0.0
2016-Jul-07 02:30N 53°49' E 006°02'0 0.1
2016-Jul-07 01:33N 53°49' E 006°02'0 0.0
2016-Jul-07 00:33N 53°49' E 006°02'0 0.0
2016-Jul-06 23:27N 53°49' E 006°02'0 0.0
2016-Jul-06 22:27N 53°49' E 006°02'0 0.0
2016-Jul-06 21:33N 53°49' E 006°02'0 0.0
2016-Jul-06 20:24N 53°49' E 006°02'0 0.0
2016-Jul-06 19:33N 53°49' E 006°02'0 0.0
2016-Jul-06 18:33N 53°49' E 006°02'0 0.1
2016-Jul-06 17:29N 53°49' E 006°02'0 0.0
2016-Jul-06 16:28N 53°49' E 006°02'0 0.0
2016-Jul-06 15:31N 53°49' E 006°02'0 0.0
2016-Jul-06 14:30N 53°49' E 006°02'0 0.1
2016-Jul-06 13:29N 53°49' E 006°02'0 0.0
2016-Jul-06 12:30N 53°49' E 006°02'0 0.0
2016-Jul-06 11:31N 53°49' E 006°02'0 0.0
2016-Jul-06 10:32N 53°49' E 006°02'  

Dump ship's entire track history